Time;durP1;ratioP1;P1;durP2;ratioP2;P2;SDS_P1;SDS_P2;PMS_P1;PMS_P2;Temp;Humidity;BMP_temperature;BMP_pressure;BME280_temperature;BME280_humidity;BME280_pressure;Samples;Min_cycle;Max_cycle;Signal;HPM_P1;HPM_P2
2021/03/15 00:01:06;;;;;;;4.50;3.15;;;3.80;99.90;;;;;;5068581;28;20189;-81
2021/03/15 00:03:34;;;;;;;3.72;2.60;;;3.90;99.90;;;;;;5065437;28;20185;-78
2021/03/15 00:06:03;;;;;;;3.65;3.10;;;3.80;99.90;;;;;;5070850;28;20185;-80
2021/03/15 00:08:32;;;;;;;3.40;2.60;;;3.70;99.90;;;;;;5053452;28;20224;-79
2021/03/15 00:10:59;;;;;;;4.55;2.60;;;3.70;99.90;;;;;;5049875;28;20189;-78
2021/03/15 00:13:27;;;;;;;3.75;2.72;;;3.70;99.90;;;;;;5061165;28;20212;-78
2021/03/15 00:15:57;;;;;;;5.18;3.33;;;3.60;99.90;;;;;;5039310;28;20204;-79
2021/03/15 00:18:26;;;;;;;6.45;2.97;;;3.60;99.90;;;;;;5038751;28;20217;-78
2021/03/15 00:20:53;;;;;;;5.32;4.53;;;3.60;99.90;;;;;;5062102;28;20184;-80
2021/03/15 00:23:21;;;;;;;3.92;2.97;;;3.60;99.90;;;;;;5064333;28;20197;-78
2021/03/15 00:25:48;;;;;;;2.88;2.47;;;3.60;99.90;;;;;;5058170;28;20192;-78
2021/03/15 00:28:15;;;;;;;4.55;2.85;;;3.60;99.90;;;;;;5057278;28;20209;-78
2021/03/15 00:30:42;;;;;;;5.50;3.65;;;3.60;99.90;;;;;;5057151;28;20211;-79
2021/03/15 00:33:09;;;;;;;4.45;3.70;;;3.60;99.90;;;;;;5056415;28;20193;-79
2021/03/15 00:35:38;;;;;;;4.78;2.50;;;3.60;99.90;;;;;;5053930;28;20224;-78
2021/03/15 00:38:05;;;;;;;3.80;2.67;;;3.60;99.90;;;;;;5056954;28;20209;-80
2021/03/15 00:40:32;;;;;;;3.55;2.75;;;3.60;99.90;;;;;;5039709;28;20207;-79
2021/03/15 00:42:59;;;;;;;2.85;1.95;;;3.60;99.90;;;;;;5059474;28;20189;-80
2021/03/15 00:45:27;;;;;;;2.78;1.92;;;3.60;99.90;;;;;;5043183;28;20212;-79
2021/03/15 00:47:55;;;;;;;2.60;2.10;;;3.70;99.90;;;;;;5057063;28;20251;-78
2021/03/15 00:50:28;;;;;;;6.47;2.58;;;3.70;99.90;;;;;;5040982;28;20246;-78
2021/03/15 00:52:57;;;;;;;2.38;2.17;;;3.70;99.90;;;;;;5056019;28;20226;-79
2021/03/15 00:55:25;;;;;;;1.65;1.35;;;3.70;99.90;;;;;;5037666;28;20213;-79
2021/03/15 00:57:53;;;;;;;1.75;1.35;;;3.60;99.90;;;;;;5051208;28;20216;-77
2021/03/15 01:00:25;;;;;;;2.42;2.00;;;3.50;99.90;;;;;;5043706;28;20204;-81
2021/03/15 01:03:09;;;;;;;4.07;2.05;;;3.50;99.90;;;;;;5043569;28;20240;-80
2021/03/15 01:05:42;;;;;;;3.17;2.05;;;3.40;99.90;;;;;;5061779;28;20168;-79
2021/03/15 01:08:25;;;;;;;3.55;3.25;;;3.40;99.90;;;;;;5042669;28;20300;-78
2021/03/15 01:10:54;;;;;;;3.05;2.42;;;3.40;99.90;;;;;;5057411;28;20239;-79
2021/03/15 01:13:23;;;;;;;3.15;2.10;;;3.40;99.90;;;;;;5040897;28;20200;-79
2021/03/15 01:15:50;;;;;;;2.45;1.92;;;3.50;99.90;;;;;;5062211;28;20209;-79
2021/03/15 01:18:20;;;;;;;3.95;1.98;;;3.60;99.90;;;;;;5042872;28;20861;-79
2021/03/15 01:20:47;;;;;;;2.92;2.10;;;3.70;99.90;;;;;;5059928;28;20183;-78
2021/03/15 01:23:14;;;;;;;3.92;2.30;;;3.70;99.90;;;;;;5057893;28;20184;-78
2021/03/15 01:25:43;;;;;;;2.67;1.65;;;3.70;99.90;;;;;;5056775;28;20555;-79
2021/03/15 01:28:12;;;;;;;3.10;2.10;;;3.80;99.90;;;;;;5059496;28;20204;-79
2021/03/15 01:30:40;;;;;;;6.75;2.67;;;3.70;99.90;;;;;;5069378;28;20211;-78
2021/03/15 01:33:08;;;;;;;4.10;2.30;;;3.80;99.90;;;;;;5070818;28;20200;-78
2021/03/15 01:35:36;;;;;;;2.22;2.00;;;3.80;99.90;;;;;;5050946;28;20216;-79
2021/03/15 01:38:06;;;;;;;5.22;2.42;;;3.90;99.90;;;;;;5070345;28;20208;-78
2021/03/15 01:40:34;;;;;;;4.68;2.65;;;3.90;99.90;;;;;;5067520;28;20267;-81
2021/03/15 01:43:03;;;;;;;6.03;2.22;;;4.00;99.90;;;;;;5060519;28;20185;-79
2021/03/15 01:45:30;;;;;;;3.58;2.33;;;4.00;99.90;;;;;;5039773;28;20189;-81
2021/03/15 01:47:58;;;;;;;7.10;2.40;;;4.00;99.90;;;;;;5058345;28;20209;-80
2021/03/15 01:50:26;;;;;;;2.33;1.80;;;4.10;99.90;;;;;;5059737;28;20203;-80
2021/03/15 01:52:55;;;;;;;5.35;3.13;;;4.10;99.90;;;;;;5052679;28;20211;-79
2021/03/15 01:55:24;;;;;;;5.20;2.50;;;4.10;99.90;;;;;;5061183;28;20216;-81
2021/03/15 01:57:52;;;;;;;5.10;2.58;;;4.00;99.90;;;;;;5060433;28;20224;-79
2021/03/15 02:00:21;;;;;;;3.47;2.40;;;4.00;99.90;;;;;;5061134;28;20276;-82
2021/03/15 02:02:55;;;;;;;4.40;2.75;;;4.00;99.90;;;;;;5059800;28;20189;-81
2021/03/15 02:05:31;;;;;;;5.72;3.20;;;4.00;99.90;;;;;;5060664;28;20177;-79
2021/03/15 02:07:58;;;;;;;2.65;2.05;;;4.00;99.90;;;;;;5060236;28;20208;-81
2021/03/15 02:10:26;;;;;;;2.13;1.85;;;4.00;99.90;;;;;;5062737;28;20189;-80
2021/03/15 02:13:06;;;;;;;4.40;2.75;;;4.00;99.90;;;;;;5060697;28;20674;-79
2021/03/15 02:15:42;;;;;;;4.53;2.35;;;4.00;99.90;;;;;;5068312;28;20197;-79
2021/03/15 02:18:16;;;;;;;3.08;1.92;;;4.00;99.90;;;;;;5075295;28;20208;-79
2021/03/15 02:21:35;;;;;;;4.70;2.63;;;4.00;99.90;;;;;;5070409;28;20230;-79
2021/03/15 02:24:10;;;;;;;2.10;1.90;;;4.00;99.90;;;;;;5054306;28;20176;-79
2021/03/15 02:26:56;;;;;;;2.97;2.15;;;4.00;99.90;;;;;;5059115;28;20172;-80
2021/03/15 02:29:59;;;;;;;2.83;1.95;;;4.10;99.90;;;;;;5041719;28;20196;-79
2021/03/15 02:32:59;;;;;;;3.58;2.17;;;4.00;99.90;;;;;;5058352;28;20269;-80
2021/03/15 02:35:30;;;;;;;2.35;1.95;;;3.90;99.90;;;;;;5058472;28;20228;-78
2021/03/15 02:38:03;;;;;;;3.83;1.73;;;4.00;99.90;;;;;;5058991;28;20699;-79
2021/03/15 02:40:33;;;;;;;5.03;2.58;;;4.00;99.90;;;;;;5056819;28;20173;-80
2021/03/15 02:43:04;;;;;;;3.53;2.30;;;4.00;99.90;;;;;;5056656;28;20188;-81
2021/03/15 02:45:34;;;;;;;5.80;2.65;;;4.00;99.90;;;;;;5056406;28;20208;-79
2021/03/15 02:48:04;;;;;;;3.63;2.25;;;4.00;99.90;;;;;;5040855;28;20227;-78
2021/03/15 02:50:33;;;;;;;4.05;2.40;;;4.00;99.90;;;;;;5058054;28;20229;-79
2021/03/15 02:53:04;;;;;;;3.53;2.13;;;4.00;99.90;;;;;;5038894;28;20200;-78
2021/03/15 02:55:32;;;;;;;4.10;3.08;;;3.90;99.90;;;;;;5057797;28;20196;-80
2021/03/15 02:58:02;;;;;;;4.40;2.80;;;4.00;99.90;;;;;;5057407;28;20632;-81
2021/03/15 03:00:32;;;;;;;7.03;1.73;;;4.00;99.90;;;;;;5059136;28;20191;-78
2021/03/15 03:03:00;;;;;;;16.77;2.05;;;4.00;99.90;;;;;;5040304;28;20193;-80
2021/03/15 03:05:29;;;;;;;3.00;2.55;;;4.00;99.90;;;;;;5056747;28;20185;-78
2021/03/15 03:08:17;;;;;;;3.40;2.13;;;4.00;99.90;;;;;;5058553;28;20196;-79
2021/03/15 03:10:44;;;;;;;3.03;2.10;;;4.00;99.90;;;;;;5056895;28;20196;-79
2021/03/15 03:13:12;;;;;;;10.48;3.85;;;4.10;99.90;;;;;;5057346;28;20196;-79
2021/03/15 03:15:39;;;;;;;4.45;3.00;;;4.10;99.90;;;;;;5057906;28;20200;-79
2021/03/15 03:18:08;;;;;;;3.20;2.58;;;4.10;99.90;;;;;;5057253;28;20238;-80
2021/03/15 03:20:36;;;;;;;8.05;3.10;;;4.20;99.90;;;;;;5059669;28;20169;-79
2021/03/15 03:23:04;;;;;;;3.33;2.20;;;4.10;99.90;;;;;;5058254;28;20180;-78
2021/03/15 03:25:34;;;;;;;5.63;3.03;;;4.10;99.90;;;;;;5055997;28;20554;-79
2021/03/15 03:28:03;;;;;;;4.70;3.58;;;4.20;99.90;;;;;;5069124;28;20213;-81
2021/03/15 03:30:33;;;;;;;5.57;3.08;;;4.20;99.90;;;;;;5078456;28;20192;-80
2021/03/15 03:33:05;;;;;;;6.18;3.45;;;4.20;99.90;;;;;;5078432;28;20173;-81
2021/03/15 03:35:33;;;;;;;4.18;2.50;;;4.10;99.90;;;;;;5078424;28;20208;-80
2021/03/15 03:38:00;;;;;;;5.55;3.10;;;4.20;99.90;;;;;;5078018;28;20212;-81
2021/03/15 03:40:29;;;;;;;4.85;3.67;;;4.20;99.90;;;;;;5074707;28;20184;-80
2021/03/15 03:42:56;;;;;;;9.50;4.38;;;4.20;99.90;;;;;;5070324;28;20220;-79
2021/03/15 03:45:24;;;;;;;6.50;4.15;;;4.20;99.90;;;;;;5071037;28;20199;-79
2021/03/15 03:47:51;;;;;;;3.60;2.90;;;4.10;99.90;;;;;;5069452;28;20212;-80
2021/03/15 03:50:21;;;;;;;5.07;4.10;;;4.10;99.90;;;;;;5074576;28;20180;-79
2021/03/15 03:52:54;;;;;;;10.90;4.00;;;4.10;99.90;;;;;;5067706;28;20185;-80
2021/03/15 03:55:25;;;;;;;7.50;5.57;;;4.00;99.90;;;;;;5064786;28;20188;-79
2021/03/15 03:57:53;;;;;;;5.10;4.20;;;4.00;99.90;;;;;;5088454;23;20227;-78
2021/03/15 04:00:22;;;;;;;8.25;4.68;;;3.90;99.90;;;;;;5053791;28;20181;-77
2021/03/15 04:02:53;;;;;;;6.00;3.50;;;3.80;99.90;;;;;;5069728;28;20203;-75
2021/03/15 04:05:25;;;;;;;6.88;4.15;;;3.80;99.90;;;;;;5060330;28;20203;-76
2021/03/15 04:07:58;;;;;;;10.40;3.75;;;3.70;99.90;;;;;;5073463;28;20294;-77
2021/03/15 04:10:30;;;;;;;10.52;4.13;;;3.70;99.90;;;;;;5093466;28;20308;-77
2021/03/15 04:13:02;;;;;;;5.75;4.15;;;3.70;99.90;;;;;;5093356;28;20267;-77
2021/03/15 04:15:32;;;;;;;8.70;4.55;;;3.70;99.90;;;;;;5093041;28;20191;-76
2021/03/15 04:18:01;;;;;;;7.30;4.10;;;3.60;99.90;;;;;;5093095;28;20294;-76
2021/03/15 04:20:32;;;;;;;5.45;3.28;;;3.60;99.90;;;;;;5092996;28;20187;-76
2021/03/15 04:23:04;;;;;;;12.55;3.70;;;3.50;99.90;;;;;;5074833;28;20196;-77
2021/03/15 04:25:34;;;;;;;3.92;2.90;;;3.40;99.90;;;;;;5093099;28;20252;-77
2021/03/15 04:28:04;;;;;;;6.10;5.13;;;3.40;99.90;;;;;;5092723;28;20210;-76
2021/03/15 04:30:33;;;;;;;6.20;4.97;;;3.30;99.90;;;;;;5092547;28;20190;-77
2021/03/15 04:33:01;;;;;;;17.95;4.78;;;3.20;99.90;;;;;;5093686;28;20186;-76
2021/03/15 04:35:30;;;;;;;9.25;3.28;;;3.10;99.90;;;;;;5093177;28;20210;-77
2021/03/15 04:37:59;;;;;;;6.90;4.50;;;3.10;99.90;;;;;;5092647;28;20213;-77
2021/03/15 04:40:27;;;;;;;9.13;5.25;;;3.10;99.90;;;;;;5092713;28;20191;-76
2021/03/15 04:42:59;;;;;;;4.68;3.75;;;3.20;99.90;;;;;;5075392;28;20191;-77
2021/03/15 04:45:28;;;;;;;7.20;3.70;;;3.30;99.90;;;;;;5074830;28;20590;-76
2021/03/15 04:47:58;;;;;;;7.88;5.22;;;3.40;99.90;;;;;;5093411;28;20214;-77
2021/03/15 04:50:26;;;;;;;5.32;3.90;;;3.40;99.90;;;;;;5094112;28;20242;-77
2021/03/15 04:52:54;;;;;;;5.38;4.20;;;3.40;99.90;;;;;;5090661;28;20191;-77
2021/03/15 04:55:32;;;;;;;7.50;4.38;;;3.50;99.90;;;;;;5095696;28;20188;-77
2021/03/15 04:58:05;;;;;;;5.18;4.03;;;3.60;99.90;;;;;;5081616;28;20228;-77
2021/03/15 05:00:33;;;;;;;6.45;3.67;;;3.60;99.90;;;;;;5101252;28;20190;-76
2021/03/15 05:03:12;;;;;;;5.90;4.22;;;3.60;99.90;;;;;;5114674;28;20210;-78
2021/03/15 05:06:19;;;;;;;10.93;2.70;;;3.60;99.90;;;;;;5115484;28;20197;-76
2021/03/15 05:08:58;;;;;;;4.28;3.17;;;3.60;99.90;;;;;;5113474;28;20207;-76
2021/03/15 05:11:30;;;;;;;9.82;3.75;;;3.60;99.90;;;;;;5094704;28;20235;-76
2021/03/15 05:13:59;;;;;;;4.03;2.90;;;3.70;99.90;;;;;;5113040;28;20738;-76
2021/03/15 05:16:28;;;;;;;5.00;4.22;;;3.70;99.90;;;;;;5113152;28;20603;-77
2021/03/15 05:18:57;;;;;;;4.22;3.45;;;3.70;99.90;;;;;;5094659;28;20692;-76
2021/03/15 05:21:25;;;;;;;3.55;3.25;;;3.70;99.90;;;;;;5112857;28;20553;-78
2021/03/15 05:23:55;;;;;;;11.35;6.05;;;3.70;99.90;;;;;;5112764;28;20192;-76
2021/03/15 05:26:23;;;;;;;9.65;4.55;;;3.70;99.90;;;;;;5112960;28;20545;-77
2021/03/15 05:28:53;;;;;;;7.15;3.60;;;3.70;99.90;;;;;;5112728;28;20209;-77
2021/03/15 05:31:21;;;;;;;6.45;4.35;;;3.80;99.90;;;;;;5112973;28;20217;-76
2021/03/15 05:33:51;;;;;;;8.02;5.05;;;3.80;99.90;;;;;;5113099;28;20179;-77
2021/03/15 05:36:20;;;;;;;3.67;2.90;;;3.80;99.90;;;;;;5114015;28;20203;-77
2021/03/15 05:38:48;;;;;;;4.53;3.22;;;3.80;99.90;;;;;;5114350;28;20210;-76
2021/03/15 05:41:15;;;;;;;6.25;4.90;;;3.90;99.90;;;;;;5113469;28;20211;-77
2021/03/15 05:43:50;;;;;;;13.55;4.03;;;3.90;99.90;;;;;;5115639;28;20186;-76
2021/03/15 05:46:43;;;;;;;12.00;4.47;;;3.90;99.20;;;;;;5118822;28;20635;-77
2021/03/15 05:49:48;;;;;;;12.90;3.35;;;3.90;90.90;;;;;;5120535;28;20229;-76
2021/03/15 05:52:33;;;;;;;5.90;4.28;;;3.90;19.30;;;;;;5120925;28;20196;-77
2021/03/15 05:55:21;;;;;;;9.93;3.45;;;3.90;1.00;;;;;;5117326;28;20185;-76
2021/03/15 05:58:39;;;;;;;9.57;6.68;;;3.90;1.00;;;;;;5110904;28;20260;-76
2021/03/15 06:01:22;;;;;;;6.20;5.45;;;4.00;1.00;;;;;;5042527;28;20772;-77
2021/03/15 06:04:24;;;;;;;4.70;3.83;;;4.00;1.00;;;;;;5097587;28;20241;-77
2021/03/15 06:06:54;;;;;;;13.02;4.45;;;4.10;1.00;;;;;;5081538;28;20745;-76
2021/03/15 06:09:29;;;;;;;9.18;4.63;;;4.20;1.00;;;;;;5097362;28;20183;-77
2021/03/15 06:12:01;;;;;;;6.28;3.72;;;4.30;1.00;;;;;;5096416;28;20179;-74
2021/03/15 06:14:31;;;;;;;7.10;3.60;;;4.30;99.90;;;;;;5098752;28;20178;-76
2021/03/15 06:16:59;;;;;;;11.38;4.47;;;4.40;99.90;;;;;;5104413;28;20213;-76
2021/03/15 06:19:26;;;;;;;9.52;4.47;;;4.30;35.60;;;;;;5099625;28;20558;-76
2021/03/15 06:21:55;;;;;;;5.47;4.93;;;4.30;57.90;;;;;;5098863;28;20192;-77
2021/03/15 06:24:24;;;;;;;4.55;4.07;;;4.20;99.90;;;;;;5080401;28;20233;-76
2021/03/15 06:26:51;;;;;;;12.68;4.03;;;4.20;90.20;;;;;;5096364;28;20184;-76
2021/03/15 06:29:19;;;;;;;8.90;4.47;;;4.20;99.90;;;;;;5095360;28;20232;-76
2021/03/15 06:31:49;;;;;;;8.82;3.30;;;4.10;99.90;;;;;;5095317;28;20214;-77
2021/03/15 06:34:21;;;;;;;5.95;3.80;;;4.10;99.90;;;;;;5095057;28;20259;-77
2021/03/15 06:36:48;;;;;;;8.48;4.40;;;4.20;99.90;;;;;;5077280;28;20630;-77
2021/03/15 06:39:17;;;;;;;5.90;2.88;;;4.20;42.10;;;;;;5095553;28;20234;-76
2021/03/15 06:41:49;;;;;;;7.72;4.40;;;4.20;1.00;;;;;;5095550;28;20183;-76
2021/03/15 06:44:16;;;;;;;7.18;4.38;;;4.30;1.00;;;;;;5095500;28;20226;-76
2021/03/15 06:46:43;;;;;;;5.60;3.80;;;4.30;1.00;;;;;;5094696;28;20203;-76
2021/03/15 06:49:11;;;;;;;7.82;4.85;;;4.40;1.00;;;;;;5094974;28;20207;-77
2021/03/15 06:51:58;;;;;;;5.43;4.20;;;4.40;1.00;;;;;;5095086;28;20183;-76
2021/03/15 06:54:26;;;;;;;3.80;3.15;;;4.40;99.90;;;;;;5094540;28;20187;-77
2021/03/15 06:57:19;;;;;;;4.40;2.55;;;4.40;99.90;;;;;;5094712;28;20199;-76
2021/03/15 06:59:52;;;;;;;8.45;5.00;;;4.40;99.90;;;;;;5115375;28;20175;-76
2021/03/15 07:02:24;;;;;;;5.43;4.22;;;4.50;99.90;;;;;;5115343;28;20258;-77
2021/03/15 07:04:54;;;;;;;5.30;4.32;;;4.50;17.90;;;;;;5114777;28;20648;-75
2021/03/15 07:07:22;;;;;;;5.65;3.63;;;4.60;99.90;;;;;;5114638;28;20195;-77
2021/03/15 07:09:55;;;;;;;7.85;4.72;;;4.60;99.90;;;;;;5115834;28;20175;-75
2021/03/15 07:12:25;;;;;;;4.60;3.17;;;4.60;99.90;;;;;;5073950;28;20238;-77
2021/03/15 07:15:04;;;;;;;5.03;2.80;;;4.70;24.50;;;;;;5071795;28;20557;-76
2021/03/15 07:17:32;;;;;;;19.67;3.63;;;4.80;45.00;;;;;;5094187;28;20282;-77
2021/03/15 07:20:00;;;;;;;9.13;4.00;;;5.00;1.00;;;;;;5094331;28;20674;-77
2021/03/15 07:22:29;;;;;;;3.28;2.85;;;5.00;1.00;;;;;;5093910;28;20195;-77
2021/03/15 07:25:08;;;;;;;5.20;4.20;;;5.00;1.00;;;;;;5094703;28;20179;-77
2021/03/15 07:27:38;;;;;;;6.78;4.50;;;5.10;1.00;;;;;;5094818;28;20225;-77
2021/03/15 07:30:31;;;;;;;7.07;4.05;;;5.20;1.00;;;;;;5093927;28;20332;-76
2021/03/15 07:33:00;;;;;;;4.38;2.83;;;5.20;1.00;;;;;;5094196;28;20176;-77
2021/03/15 07:35:31;;;;;;;5.25;3.47;;;5.20;1.00;;;;;;5093760;28;20262;-78
2021/03/15 07:37:58;;;;;;;4.25;3.20;;;5.20;1.00;;;;;;5093822;28;20246;-78
2021/03/15 07:40:44;;;;;;;5.05;2.45;;;5.20;1.00;;;;;;5077198;28;20203;-78
2021/03/15 07:43:14;;;;;;;3.88;2.83;;;5.30;1.00;;;;;;5098423;28;20180;-79
2021/03/15 07:45:45;;;;;;;4.80;2.40;;;5.50;1.00;;;;;;5100300;28;20634;-79
2021/03/15 07:48:19;;;;;;;5.63;3.55;;;5.70;99.90;;;;;;5081373;28;20466;-78
2021/03/15 07:50:58;;;;;;;3.28;2.50;;;5.80;1.00;;;;;;5084526;28;20196;-78
2021/03/15 07:53:43;;;;;;;6.57;3.20;;;6.10;99.90;;;;;;5117433;28;20185;-79
2021/03/15 07:56:11;;;;;;;4.05;3.08;;;6.10;99.90;;;;;;5099147;28;20191;-80
2021/03/15 07:58:41;;;;;;;7.35;6.65;;;5.90;99.90;;;;;;5098405;28;20222;-79
2021/03/15 08:01:09;;;;;;;5.35;2.97;;;5.90;99.90;;;;;;5117530;28;20219;-78
2021/03/15 08:03:39;;;;;;;5.45;3.75;;;5.90;99.90;;;;;;5100450;28;20238;-77
2021/03/15 08:06:07;;;;;;;3.47;3.05;;;5.80;99.90;;;;;;5117209;28;20195;-79
2021/03/15 08:08:35;;;;;;;3.22;2.53;;;6.00;99.90;;;;;;5116960;28;20191;-79
2021/03/15 08:11:04;;;;;;;7.75;3.60;;;6.00;99.90;;;;;;5104124;28;20222;-79
2021/03/15 08:13:36;;;;;;;3.63;3.22;;;6.10;99.90;;;;;;5109172;28;20283;-78
2021/03/15 08:16:06;;;;;;;4.65;4.10;;;6.00;99.90;;;;;;5107659;28;20227;-78
2021/03/15 08:18:35;;;;;;;4.13;3.65;;;6.00;99.90;;;;;;5089214;28;20251;-78
2021/03/15 08:21:05;;;;;;;4.60;3.70;;;6.20;99.90;;;;;;5104602;28;20168;-79
2021/03/15 08:23:39;;;;;;;7.20;3.50;;;6.30;99.90;;;;;;5085213;28;20183;-79
2021/03/15 08:26:09;;;;;;;4.28;3.80;;;6.60;99.90;;;;;;5099988;28;20295;-79
2021/03/15 08:28:38;;;;;;;5.80;3.72;;;6.90;99.90;;;;;;5098699;28;20250;-79
2021/03/15 08:31:14;;;;;;;3.85;3.55;;;7.20;99.90;;;;;;5097147;28;20192;-79
2021/03/15 08:33:44;;;;;;;7.63;3.72;;;7.40;99.90;;;;;;5079314;28;20180;-78
2021/03/15 08:36:13;;;;;;;6.80;4.03;;;7.30;99.90;;;;;;5076964;28;20204;-79
2021/03/15 08:38:41;;;;;;;4.05;3.60;;;7.30;99.90;;;;;;5076913;28;20682;-79
2021/03/15 08:41:09;;;;;;;5.63;3.67;;;7.20;99.90;;;;;;5087542;28;20195;-78
2021/03/15 08:43:39;;;;;;;4.00;3.60;;;7.30;99.90;;;;;;5097516;28;20218;-78
2021/03/15 08:46:10;;;;;;;5.30;3.40;;;7.00;99.90;;;;;;5097250;28;20214;-79
2021/03/15 08:49:00;;;;;;;9.15;3.50;;;6.90;99.90;;;;;;5097282;28;20252;-79
2021/03/15 08:51:44;;;;;;;6.45;4.68;;;6.70;99.90;;;;;;5097347;28;20168;-78
2021/03/15 08:54:11;;;;;;;4.28;3.65;;;6.60;99.90;;;;;;5099056;28;20186;-79
2021/03/15 08:56:40;;;;;;;4.80;3.17;;;6.30;99.90;;;;;;5099583;28;20203;-79
2021/03/15 08:59:09;;;;;;;7.97;4.07;;;6.50;99.90;;;;;;5082519;28;20219;-80
2021/03/15 09:01:58;;;;;;;6.35;4.05;;;6.60;99.90;;;;;;5100149;28;20556;-79
2021/03/15 09:04:48;;;;;;;2.70;2.50;;;6.80;99.90;;;;;;5101123;28;20237;-79
2021/03/15 09:07:40;;;;;;;7.90;4.75;;;6.90;99.90;;;;;;5082471;28;20227;-79
2021/03/15 09:10:37;;;;;;;4.85;4.45;;;6.90;99.90;;;;;;5082447;28;20676;-80
2021/03/15 09:13:26;;;;;;;4.40;3.60;;;6.80;99.90;;;;;;5064458;28;20202;-80
2021/03/15 09:16:28;;;;;;;5.45;3.97;;;7.10;99.90;;;;;;5086891;28;20184;-79
2021/03/15 09:18:57;;;;;;;5.22;4.32;;;7.10;99.90;;;;;;5105111;28;20285;-80
2021/03/15 09:21:51;;;;;;;5.35;4.18;;;7.10;99.90;;;;;;5105958;28;20183;-80
2021/03/15 09:24:45;;;;;;;7.53;3.85;;;7.20;99.90;;;;;;5105988;28;20194;-80
2021/03/15 09:27:30;;;;;;;6.25;4.82;;;7.30;99.90;;;;;;5089143;28;20250;-81
2021/03/15 09:29:59;;;;;;;5.55;3.13;;;7.50;99.90;;;;;;5088354;28;20219;-80
2021/03/15 09:32:29;;;;;;;4.97;4.47;;;8.00;99.90;;;;;;5091848;28;20225;-80
2021/03/15 09:35:01;;;;;;;8.52;3.85;;;8.00;99.90;;;;;;5109006;28;20219;-80
2021/03/15 09:37:29;;;;;;;5.78;4.07;;;7.80;99.90;;;;;;5089743;28;20241;-80
2021/03/15 09:39:57;;;;;;;5.38;4.07;;;7.80;99.90;;;;;;5090626;28;20649;-79
2021/03/15 09:42:25;;;;;;;4.63;4.22;;;7.90;99.90;;;;;;5111805;28;20188;-79
2021/03/15 09:44:53;;;;;;;5.07;3.67;;;8.00;99.90;;;;;;5113650;28;20164;-79
2021/03/15 09:47:26;;;;;;;5.03;3.78;;;7.90;99.90;;;;;;5092153;28;20279;-79
2021/03/15 09:49:55;;;;;;;5.80;3.95;;;8.00;99.90;;;;;;5090808;28;20611;-79
2021/03/15 09:52:48;;;;;;;6.22;3.72;;;7.90;99.90;;;;;;5091490;28;20192;-80
2021/03/15 09:55:17;;;;;;;4.65;3.28;;;8.10;99.90;;;;;;5091522;28;20192;-79
2021/03/15 09:57:45;;;;;;;2.72;2.20;;;8.30;99.90;;;;;;5107178;28;20246;-85
2021/03/15 10:00:24;;;;;;;3.55;3.22;;;8.30;99.90;;;;;;5068780;28;20270;-78
2021/03/15 10:03:05;;;;;;;4.90;2.63;;;8.40;99.90;;;;;;5066922;28;20259;-78
2021/03/15 10:05:53;;;;;;;4.05;3.65;;;8.20;99.90;;;;;;5094774;28;20198;-83
2021/03/15 10:08:47;;;;;;;5.32;3.10;;;8.10;99.90;;;;;;5103935;28;20222;-82
2021/03/15 10:11:42;;;;;;;4.13;2.67;;;7.90;99.90;;;;;;5103680;28;20194;-79
2021/03/15 10:14:28;;;;;;;3.50;2.58;;;7.80;99.90;;;;;;5106291;28;20246;-84
2021/03/15 10:17:07;;;;;;;3.03;2.58;;;7.90;99.90;;;;;;5102312;28;20195;-79
2021/03/15 10:19:57;;;;;;;3.42;3.13;;;8.20;99.90;;;;;;5096475;28;20217;-81
2021/03/15 10:22:25;;;;;;;5.57;2.58;;;8.30;99.90;;;;;;5083256;28;20191;-80
2021/03/15 10:25:03;;;;;;;3.72;2.13;;;8.60;99.90;;;;;;5082734;28;20221;-79
2021/03/15 10:27:35;;;;;;;3.58;2.92;;;8.50;99.90;;;;;;5081698;28;20203;-81
2021/03/15 10:30:07;;;;;;;3.25;2.15;;;8.40;99.90;;;;;;5081411;28;20400;-80
2021/03/15 10:32:37;;;;;;;6.35;2.63;;;8.50;99.90;;;;;;5083130;28;20203;-79
2021/03/15 10:35:06;;;;;;;2.80;2.28;;;8.40;99.90;;;;;;5084230;28;20184;-80
2021/03/15 10:37:57;;;;;;;2.38;1.65;;;8.50;99.90;;;;;;5086380;28;20238;-82
2021/03/15 10:40:32;;;;;;;2.92;2.08;;;8.60;99.90;;;;;;5089901;28;20191;-80
2021/03/15 10:43:03;;;;;;;1.92;1.73;;;8.60;99.90;;;;;;5087177;28;20197;-77
2021/03/15 10:45:32;;;;;;;2.10;1.88;;;8.40;99.90;;;;;;5091470;28;20320;-80
2021/03/15 10:48:07;;;;;;;3.97;2.33;;;8.40;99.90;;;;;;5088950;28;20257;-79
2021/03/15 10:50:55;;;;;;;2.63;2.20;;;8.60;99.90;;;;;;5088178;28;20191;-77
2021/03/15 10:53:44;;;;;;;2.15;1.77;;;8.70;99.90;;;;;;5091078;28;20198;-79
2021/03/15 10:56:18;;;;;;;3.72;2.75;;;8.70;99.90;;;;;;5089855;28;20217;-79
2021/03/15 10:58:51;;;;;;;2.90;2.33;;;8.60;99.90;;;;;;5100868;28;20558;-79
2021/03/15 11:01:25;;;;;;;2.78;1.90;;;8.50;99.90;;;;;;5103760;28;20190;-78
2021/03/15 11:04:11;;;;;;;2.42;2.22;;;8.50;99.90;;;;;;5104529;28;20179;-79
2021/03/15 11:06:48;;;;;;;3.60;1.80;;;8.50;99.90;;;;;;5108001;28;20469;-85
2021/03/15 11:09:20;;;;;;;2.78;1.50;;;8.50;99.90;;;;;;5120615;27;20170;-83
2021/03/15 11:11:54;;;;;;;4.15;3.33;;;8.30;99.90;;;;;;5117763;28;20214;-79
2021/03/15 11:14:41;;;;;;;2.53;2.33;;;8.30;99.90;;;;;;5109711;28;20250;-78
2021/03/15 11:17:22;;;;;;;3.30;2.20;;;8.60;99.90;;;;;;5103752;28;20222;-80
2021/03/15 11:19:58;;;;;;;2.47;2.00;;;8.60;99.90;;;;;;5087688;28;20195;-79
2021/03/15 11:22:49;;;;;;;3.08;1.88;;;8.40;99.90;;;;;;5081795;28;20190;-79
2021/03/15 11:25:22;;;;;;;5.85;2.42;;;8.10;99.90;;;;;;5086832;28;20194;-81
2021/03/15 11:28:19;;;;;;;3.85;2.40;;;8.20;99.90;;;;;;5091578;28;20211;-84
2021/03/15 11:30:59;;;;;;;2.75;2.00;;;8.30;99.90;;;;;;5086569;28;20179;-81
2021/03/15 11:33:34;;;;;;;2.90;2.30;;;8.70;99.90;;;;;;5087927;28;20183;-81
2021/03/15 11:36:17;;;;;;;2.25;2.05;;;8.80;99.90;;;;;;5087786;28;20284;-83
2021/03/15 11:38:57;;;;;;;3.90;2.15;;;8.80;99.90;;;;;;5084790;28;20689;-82
2021/03/15 11:41:39;;;;;;;2.78;2.20;;;9.00;99.90;;;;;;5084315;28;20186;-79
2021/03/15 11:44:08;;;;;;;4.75;2.20;;;9.10;99.60;;;;;;5087346;28;20214;-79
2021/03/15 11:46:36;;;;;;;2.60;1.67;;;8.90;99.90;;;;;;5086031;28;20653;-78
2021/03/15 11:49:05;;;;;;;3.58;1.90;;;9.00;99.90;;;;;;5100513;28;20230;-79
2021/03/15 11:51:59;;;;;;;3.67;2.72;;;8.80;96.00;;;;;;5113213;28;20263;-79
2021/03/15 11:54:43;;;;;;;3.78;2.13;;;8.90;99.90;;;;;;5100883;28;20175;-78
2021/03/15 11:57:12;;;;;;;8.90;2.85;;;9.50;99.90;;;;;;5100193;28;20199;-78
2021/03/15 11:59:42;;;;;;;2.42;2.20;;;10.00;93.80;;;;;;5100897;28;20194;-79
2021/03/15 12:02:19;;;;;;;2.38;2.17;;;9.80;91.90;;;;;;5100539;28;20174;-80
2021/03/15 12:04:49;;;;;;;3.35;2.58;;;9.90;91.00;;;;;;5096875;28;20203;-80
2021/03/15 12:07:17;;;;;;;7.53;2.20;;;9.80;84.40;;;;;;5103153;28;20229;-80
2021/03/15 12:09:49;;;;;;;4.57;2.20;;;9.50;80.20;;;;;;5091845;28;20195;-78
2021/03/15 12:12:17;;;;;;;5.93;3.80;;;9.80;82.40;;;;;;5090331;28;20192;-80
2021/03/15 12:14:56;;;;;;;3.55;2.35;;;9.90;79.80;;;;;;5091775;28;20258;-79
2021/03/15 12:17:25;;;;;;;1.63;1.33;;;9.70;87.30;;;;;;5088845;28;20243;-81
2021/03/15 12:19:55;;;;;;;4.00;2.80;;;9.50;71.80;;;;;;5088036;28;20210;-83
2021/03/15 12:22:41;;;;;;;2.85;1.90;;;9.30;71.90;;;;;;5084288;28;20249;-80
2021/03/15 12:25:11;;;;;;;2.22;1.60;;;9.20;72.10;;;;;;5098315;28;20183;-79
2021/03/15 12:27:45;;;;;;;2.40;1.70;;;9.20;73.20;;;;;;5079092;28;20207;-79
2021/03/15 12:30:16;;;;;;;2.15;1.90;;;9.00;83.10;;;;;;5081293;28;20219;-79
2021/03/15 12:32:44;;;;;;;2.45;1.90;;;8.90;78.50;;;;;;5081484;28;20196;-80
2021/03/15 12:35:12;;;;;;;2.10;1.55;;;8.80;75.90;;;;;;5083200;28;20657;-78
2021/03/15 12:37:40;;;;;;;4.40;2.92;;;8.50;76.40;;;;;;5081181;28;20305;-79
2021/03/15 12:40:10;;;;;;;3.45;2.05;;;8.40;78.60;;;;;;5080295;28;20217;-79
2021/03/15 12:42:38;;;;;;;2.10;1.70;;;8.10;84.50;;;;;;5081262;28;20210;-79
2021/03/15 12:45:18;;;;;;;2.13;1.92;;;8.00;99.30;;;;;;5082302;28;20190;-80
2021/03/15 12:47:52;;;;;;;2.97;2.13;;;7.70;99.90;;;;;;5099067;28;20253;-79
2021/03/15 12:50:20;;;;;;;3.65;2.80;;;7.60;99.90;;;;;;5082921;28;20183;-80
2021/03/15 12:52:47;;;;;;;3.17;2.88;;;7.50;99.90;;;;;;5102673;28;20187;-80
2021/03/15 12:55:28;;;;;;;3.58;3.28;;;7.60;99.90;;;;;;5085275;28;20210;-79
2021/03/15 12:57:56;;;;;;;5.70;2.92;;;7.90;99.90;;;;;;5084071;28;20218;-79
2021/03/15 13:00:25;;;;;;;3.20;2.30;;;8.10;99.90;;;;;;5084210;28;20244;-79
2021/03/15 13:03:22;;;;;;;2.00;1.80;;;8.20;99.90;;;;;;5089779;28;20206;-79
2021/03/15 13:05:50;;;;;;;3.53;2.38;;;8.10;99.90;;;;;;5085501;28;20188;-79
2021/03/15 13:08:36;;;;;;;3.53;2.15;;;8.20;99.90;;;;;;5102932;28;20221;-79
2021/03/15 13:11:33;;;;;;;5.00;2.22;;;8.30;99.90;;;;;;5083220;28;20195;-78
2021/03/15 13:14:35;;;;;;;2.50;2.30;;;8.10;99.90;;;;;;5085233;28;20206;-81
2021/03/15 13:17:11;;;;;;;7.78;3.25;;;8.20;99.90;;;;;;5082278;28;20219;-79
2021/03/15 13:19:39;;;;;;;4.30;3.28;;;8.50;99.90;;;;;;5084593;28;20557;-78
2021/03/15 13:22:07;;;;;;;2.97;2.35;;;8.70;99.90;;;;;;5082983;28;20191;-78
2021/03/15 13:24:40;;;;;;;3.05;2.03;;;8.70;99.90;;;;;;5084892;28;20752;-80
2021/03/15 13:27:09;;;;;;;3.70;2.85;;;8.70;99.90;;;;;;5084870;28;20453;-79
2021/03/15 13:29:49;;;;;;;3.78;2.38;;;8.70;99.90;;;;;;5083781;28;20199;-79
2021/03/15 13:32:18;;;;;;;3.42;1.80;;;8.60;99.90;;;;;;5081646;28;20226;-78